East Hampstead, New Hampshire
Current Conditions -  °F | °C
As of 7:54 PM on Friday 19 Dec 2014 (Local Time) from KLWM Reporting Station
Clear Clear  
Wind Chill: -5°   Ceiling: Unl
Heat Index: -2°   Visibility: 10mi
Dew Point: -7°   Wind: 5mph
Humidity: 72%   Direction: NA
Pressure: 30.1"   Gusts: NA
Location:  42.89°N, 71.14°W
Report Text: KLWM 200054Z VRB04KT 10SM CLR M02/M07 A3010 RMK AO2 SLP193 T10221067
Loading
Personal Weather Stations






























Interactive Weather Map New forecast layout! Learn more

10-Day Weather Forecast

Advertisements
Track Severe Weather on mobile